sensor_id;sensor_type;location;lat;lon;timestamp;P1;durP1;ratioP1;P2;durP2;ratioP2
71570;SDS011;59407;42.682;23.322;2023-04-15T00:00:27;3.53;;;1.20;;
71570;SDS011;59407;42.682;23.322;2023-04-15T00:02:53;1.50;;;0.90;;
71570;SDS011;59407;42.682;23.322;2023-04-15T00:05:20;1.40;;;0.80;;
71570;SDS011;59407;42.682;23.322;2023-04-15T00:07:47;1.80;;;1.30;;
71570;SDS011;59407;42.682;23.322;2023-04-15T00:10:13;1.40;;;0.80;;
71570;SDS011;59407;42.682;23.322;2023-04-15T00:12:38;2.10;;;1.20;;
71570;SDS011;59407;42.682;23.322;2023-04-15T00:15:04;2.10;;;1.03;;
71570;SDS011;59407;42.682;23.322;2023-04-15T00:17:32;1.52;;;0.95;;
71570;SDS011;59407;42.682;23.322;2023-04-15T00:19:58;2.90;;;1.23;;
71570;SDS011;59407;42.682;23.322;2023-04-15T00:22:24;1.60;;;0.70;;
71570;SDS011;59407;42.682;23.322;2023-04-15T00:24:51;1.52;;;0.98;;
71570;SDS011;59407;42.682;23.322;2023-04-15T00:27:17;1.90;;;1.40;;
71570;SDS011;59407;42.682;23.322;2023-04-15T00:29:43;1.70;;;0.90;;
71570;SDS011;59407;42.682;23.322;2023-04-15T00:32:09;1.50;;;0.88;;
71570;SDS011;59407;42.682;23.322;2023-04-15T00:34:34;1.73;;;1.03;;
71570;SDS011;59407;42.682;23.322;2023-04-15T00:37:00;3.17;;;1.20;;
71570;SDS011;59407;42.682;23.322;2023-04-15T00:39:26;2.70;;;2.03;;
71570;SDS011;59407;42.682;23.322;2023-04-15T00:41:53;2.60;;;1.05;;
71570;SDS011;59407;42.682;23.322;2023-04-15T00:44:19;2.65;;;1.20;;
71570;SDS011;59407;42.682;23.322;2023-04-15T00:46:50;1.73;;;0.88;;
71570;SDS011;59407;42.682;23.322;2023-04-15T00:49:16;1.40;;;0.80;;
71570;SDS011;59407;42.682;23.322;2023-04-15T00:51:44;7.18;;;1.63;;
71570;SDS011;59407;42.682;23.322;2023-04-15T00:54:10;3.35;;;1.48;;
71570;SDS011;59407;42.682;23.322;2023-04-15T00:56:37;6.85;;;2.30;;
71570;SDS011;59407;42.682;23.322;2023-04-15T00:59:04;1.50;;;0.88;;
71570;SDS011;59407;42.682;23.322;2023-04-15T01:01:32;1.60;;;1.00;;
71570;SDS011;59407;42.682;23.322;2023-04-15T01:03:59;2.45;;;0.93;;
71570;SDS011;59407;42.682;23.322;2023-04-15T01:06:25;1.65;;;1.00;;
71570;SDS011;59407;42.682;23.322;2023-04-15T01:08:51;1.30;;;0.63;;
71570;SDS011;59407;42.682;23.322;2023-04-15T01:11:21;1.40;;;0.70;;
71570;SDS011;59407;42.682;23.322;2023-04-15T01:13:48;1.90;;;1.50;;
71570;SDS011;59407;42.682;23.322;2023-04-15T01:16:14;2.28;;;1.45;;
71570;SDS011;59407;42.682;23.322;2023-04-15T01:18:41;1.75;;;1.02;;
71570;SDS011;59407;42.682;23.322;2023-04-15T01:21:08;1.50;;;1.08;;
71570;SDS011;59407;42.682;23.322;2023-04-15T01:23:35;1.60;;;0.80;;
71570;SDS011;59407;42.682;23.322;2023-04-15T01:26:02;1.35;;;0.75;;
71570;SDS011;59407;42.682;23.322;2023-04-15T01:28:29;1.27;;;0.57;;
71570;SDS011;59407;42.682;23.322;2023-04-15T01:31:06;2.60;;;1.20;;
71570;SDS011;59407;42.682;23.322;2023-04-15T01:33:40;2.07;;;1.20;;
71570;SDS011;59407;42.682;23.322;2023-04-15T01:36:06;1.42;;;0.88;;
71570;SDS011;59407;42.682;23.322;2023-04-15T01:38:35;2.80;;;1.42;;
71570;SDS011;59407;42.682;23.322;2023-04-15T01:41:04;1.55;;;0.75;;
71570;SDS011;59407;42.682;23.322;2023-04-15T01:43:31;2.00;;;0.95;;
71570;SDS011;59407;42.682;23.322;2023-04-15T01:45:57;4.60;;;0.57;;
71570;SDS011;59407;42.682;23.322;2023-04-15T01:48:24;1.90;;;0.90;;
71570;SDS011;59407;42.682;23.322;2023-04-15T01:50:51;1.33;;;0.73;;
71570;SDS011;59407;42.682;23.322;2023-04-15T01:53:17;1.80;;;0.82;;
71570;SDS011;59407;42.682;23.322;2023-04-15T01:55:46;2.85;;;1.05;;
71570;SDS011;59407;42.682;23.322;2023-04-15T01:58:11;1.57;;;0.97;;
71570;SDS011;59407;42.682;23.322;2023-04-15T02:00:39;1.42;;;0.93;;
71570;SDS011;59407;42.682;23.322;2023-04-15T02:03:05;1.67;;;1.10;;
71570;SDS011;59407;42.682;23.322;2023-04-15T02:05:31;2.08;;;1.15;;
71570;SDS011;59407;42.682;23.322;2023-04-15T02:07:58;1.43;;;1.00;;
71570;SDS011;59407;42.682;23.322;2023-04-15T02:10:24;1.73;;;1.20;;
71570;SDS011;59407;42.682;23.322;2023-04-15T02:12:49;2.50;;;1.50;;
71570;SDS011;59407;42.682;23.322;2023-04-15T02:15:15;2.50;;;1.73;;
71570;SDS011;59407;42.682;23.322;2023-04-15T02:17:41;1.50;;;0.93;;
71570;SDS011;59407;42.682;23.322;2023-04-15T02:20:10;1.27;;;0.70;;
71570;SDS011;59407;42.682;23.322;2023-04-15T02:22:35;1.85;;;1.08;;
71570;SDS011;59407;42.682;23.322;2023-04-15T02:25:01;1.48;;;1.00;;
71570;SDS011;59407;42.682;23.322;2023-04-15T02:27:27;1.55;;;0.85;;
71570;SDS011;59407;42.682;23.322;2023-04-15T02:29:53;1.40;;;0.80;;
71570;SDS011;59407;42.682;23.322;2023-04-15T02:32:19;1.50;;;0.98;;
71570;SDS011;59407;42.682;23.322;2023-04-15T02:34:47;1.50;;;0.90;;
71570;SDS011;59407;42.682;23.322;2023-04-15T02:37:13;1.75;;;1.30;;
71570;SDS011;59407;42.682;23.322;2023-04-15T02:39:40;2.30;;;1.57;;
71570;SDS011;59407;42.682;23.322;2023-04-15T02:42:05;1.70;;;1.07;;
71570;SDS011;59407;42.682;23.322;2023-04-15T02:44:31;1.40;;;0.80;;
71570;SDS011;59407;42.682;23.322;2023-04-15T02:46:59;2.08;;;1.23;;
71570;SDS011;59407;42.682;23.322;2023-04-15T02:49:25;2.00;;;0.98;;
71570;SDS011;59407;42.682;23.322;2023-04-15T02:51:55;1.90;;;1.40;;
71570;SDS011;59407;42.682;23.322;2023-04-15T02:54:25;2.87;;;2.27;;
71570;SDS011;59407;42.682;23.322;2023-04-15T02:56:52;2.78;;;1.63;;
71570;SDS011;59407;42.682;23.322;2023-04-15T02:59:20;3.15;;;1.10;;
71570;SDS011;59407;42.682;23.322;2023-04-15T03:01:46;1.88;;;1.52;;
71570;SDS011;59407;42.682;23.322;2023-04-15T03:04:12;1.87;;;1.23;;
71570;SDS011;59407;42.682;23.322;2023-04-15T03:06:38;1.58;;;0.95;;
71570;SDS011;59407;42.682;23.322;2023-04-15T03:09:05;1.50;;;0.95;;
71570;SDS011;59407;42.682;23.322;2023-04-15T03:11:32;1.38;;;0.80;;
71570;SDS011;59407;42.682;23.322;2023-04-15T03:14:04;2.35;;;1.17;;
71570;SDS011;59407;42.682;23.322;2023-04-15T03:16:31;1.83;;;1.13;;
71570;SDS011;59407;42.682;23.322;2023-04-15T03:18:57;1.45;;;0.95;;
71570;SDS011;59407;42.682;23.322;2023-04-15T03:21:22;1.60;;;1.03;;
71570;SDS011;59407;42.682;23.322;2023-04-15T03:23:48;1.70;;;1.10;;
71570;SDS011;59407;42.682;23.322;2023-04-15T03:26:27;5.32;;;2.05;;
71570;SDS011;59407;42.682;23.322;2023-04-15T03:28:54;2.38;;;1.60;;
71570;SDS011;59407;42.682;23.322;2023-04-15T03:31:20;3.20;;;1.23;;
71570;SDS011;59407;42.682;23.322;2023-04-15T03:33:46;1.70;;;1.10;;
71570;SDS011;59407;42.682;23.322;2023-04-15T03:36:11;1.60;;;1.10;;
71570;SDS011;59407;42.682;23.322;2023-04-15T03:38:36;1.30;;;0.63;;
71570;SDS011;59407;42.682;23.322;2023-04-15T03:41:02;1.60;;;1.00;;
71570;SDS011;59407;42.682;23.322;2023-04-15T03:43:29;1.85;;;1.38;;
71570;SDS011;59407;42.682;23.322;2023-04-15T03:45:56;1.50;;;1.02;;
71570;SDS011;59407;42.682;23.322;2023-04-15T03:48:21;2.17;;;1.25;;
71570;SDS011;59407;42.682;23.322;2023-04-15T03:50:49;1.43;;;0.90;;
71570;SDS011;59407;42.682;23.322;2023-04-15T03:53:14;1.70;;;1.20;;
71570;SDS011;59407;42.682;23.322;2023-04-15T03:55:40;1.30;;;0.63;;
71570;SDS011;59407;42.682;23.322;2023-04-15T03:58:07;1.42;;;0.90;;
71570;SDS011;59407;42.682;23.322;2023-04-15T04:00:36;1.67;;;0.98;;
71570;SDS011;59407;42.682;23.322;2023-04-15T04:03:03;1.80;;;1.13;;
71570;SDS011;59407;42.682;23.322;2023-04-15T04:05:29;1.73;;;1.10;;
71570;SDS011;59407;42.682;23.322;2023-04-15T04:07:55;1.35;;;0.65;;
71570;SDS011;59407;42.682;23.322;2023-04-15T04:10:21;1.40;;;0.73;;
71570;SDS011;59407;42.682;23.322;2023-04-15T04:12:47;1.50;;;0.80;;
71570;SDS011;59407;42.682;23.322;2023-04-15T04:15:13;1.50;;;0.95;;
71570;SDS011;59407;42.682;23.322;2023-04-15T04:17:39;1.40;;;0.87;;
71570;SDS011;59407;42.682;23.322;2023-04-15T04:20:05;2.03;;;1.27;;
71570;SDS011;59407;42.682;23.322;2023-04-15T04:22:36;1.70;;;1.20;;
71570;SDS011;59407;42.682;23.322;2023-04-15T04:25:06;1.50;;;0.82;;
71570;SDS011;59407;42.682;23.322;2023-04-15T04:27:32;1.57;;;1.10;;
71570;SDS011;59407;42.682;23.322;2023-04-15T04:29:58;1.48;;;0.90;;
71570;SDS011;59407;42.682;23.322;2023-04-15T04:32:25;1.70;;;1.33;;
71570;SDS011;59407;42.682;23.322;2023-04-15T04:34:51;2.47;;;1.30;;
71570;SDS011;59407;42.682;23.322;2023-04-15T04:37:18;1.33;;;0.67;;
71570;SDS011;59407;42.682;23.322;2023-04-15T04:39:44;2.33;;;1.15;;
71570;SDS011;59407;42.682;23.322;2023-04-15T04:42:12;1.88;;;1.10;;
71570;SDS011;59407;42.682;23.322;2023-04-15T04:44:37;2.45;;;1.50;;
71570;SDS011;59407;42.682;23.322;2023-04-15T04:47:04;1.87;;;1.13;;
71570;SDS011;59407;42.682;23.322;2023-04-15T04:49:31;2.90;;;1.25;;
71570;SDS011;59407;42.682;23.322;2023-04-15T04:51:57;1.50;;;1.07;;
71570;SDS011;59407;42.682;23.322;2023-04-15T04:54:23;1.65;;;1.15;;
71570;SDS011;59407;42.682;23.322;2023-04-15T04:56:49;1.70;;;1.10;;
71570;SDS011;59407;42.682;23.322;2023-04-15T04:59:14;1.93;;;1.17;;
71570;SDS011;59407;42.682;23.322;2023-04-15T05:01:41;4.18;;;1.40;;
71570;SDS011;59407;42.682;23.322;2023-04-15T05:04:07;1.42;;;0.93;;
71570;SDS011;59407;42.682;23.322;2023-04-15T05:06:32;2.30;;;1.67;;
71570;SDS011;59407;42.682;23.322;2023-04-15T05:09:00;1.90;;;1.52;;
71570;SDS011;59407;42.682;23.322;2023-04-15T05:11:27;1.57;;;0.87;;
71570;SDS011;59407;42.682;23.322;2023-04-15T05:13:53;2.13;;;1.42;;
71570;SDS011;59407;42.682;23.322;2023-04-15T05:16:19;2.35;;;1.05;;
71570;SDS011;59407;42.682;23.322;2023-04-15T05:18:46;2.65;;;1.52;;
71570;SDS011;59407;42.682;23.322;2023-04-15T05:21:13;1.42;;;0.68;;
71570;SDS011;59407;42.682;23.322;2023-04-15T05:23:39;2.13;;;1.20;;
71570;SDS011;59407;42.682;23.322;2023-04-15T05:26:05;2.08;;;1.35;;
71570;SDS011;59407;42.682;23.322;2023-04-15T05:28:31;2.05;;;1.20;;
71570;SDS011;59407;42.682;23.322;2023-04-15T05:30:59;1.50;;;0.85;;
71570;SDS011;59407;42.682;23.322;2023-04-15T05:33:25;2.28;;;1.50;;
71570;SDS011;59407;42.682;23.322;2023-04-15T05:35:53;2.27;;;1.67;;
71570;SDS011;59407;42.682;23.322;2023-04-15T05:38:18;1.40;;;0.77;;
71570;SDS011;59407;42.682;23.322;2023-04-15T05:40:45;2.10;;;1.27;;
71570;SDS011;59407;42.682;23.322;2023-04-15T05:43:11;1.52;;;1.05;;
71570;SDS011;59407;42.682;23.322;2023-04-15T05:45:37;2.13;;;1.80;;
71570;SDS011;59407;42.682;23.322;2023-04-15T05:48:03;1.70;;;0.85;;
71570;SDS011;59407;42.682;23.322;2023-04-15T05:50:29;2.10;;;1.27;;
71570;SDS011;59407;42.682;23.322;2023-04-15T05:52:55;1.63;;;0.98;;
71570;SDS011;59407;42.682;23.322;2023-04-15T05:55:21;3.58;;;1.25;;
71570;SDS011;59407;42.682;23.322;2023-04-15T05:57:51;2.88;;;1.02;;
71570;SDS011;59407;42.682;23.322;2023-04-15T06:00:17;1.65;;;1.10;;
71570;SDS011;59407;42.682;23.322;2023-04-15T06:02:43;1.30;;;0.50;;
71570;SDS011;59407;42.682;23.322;2023-04-15T06:05:09;1.67;;;0.73;;
71570;SDS011;59407;42.682;23.322;2023-04-15T06:07:36;1.45;;;0.70;;
71570;SDS011;59407;42.682;23.322;2023-04-15T06:10:03;1.50;;;0.82;;
71570;SDS011;59407;42.682;23.322;2023-04-15T06:12:29;3.07;;;1.70;;
71570;SDS011;59407;42.682;23.322;2023-04-15T06:14:56;2.60;;;1.52;;
71570;SDS011;59407;42.682;23.322;2023-04-15T06:17:24;2.50;;;1.27;;
71570;SDS011;59407;42.682;23.322;2023-04-15T06:19:50;4.07;;;1.92;;
71570;SDS011;59407;42.682;23.322;2023-04-15T06:22:20;1.60;;;0.87;;
71570;SDS011;59407;42.682;23.322;2023-04-15T06:24:47;2.25;;;1.17;;
71570;SDS011;59407;42.682;23.322;2023-04-15T06:27:13;1.67;;;0.88;;
71570;SDS011;59407;42.682;23.322;2023-04-15T06:29:38;1.60;;;0.90;;
71570;SDS011;59407;42.682;23.322;2023-04-15T06:32:05;2.20;;;0.98;;
71570;SDS011;59407;42.682;23.322;2023-04-15T06:34:30;2.25;;;0.85;;
71570;SDS011;59407;42.682;23.322;2023-04-15T06:36:56;1.70;;;1.00;;
71570;SDS011;59407;42.682;23.322;2023-04-15T06:39:22;1.50;;;0.53;;
71570;SDS011;59407;42.682;23.322;2023-04-15T06:41:49;2.22;;;0.88;;
71570;SDS011;59407;42.682;23.322;2023-04-15T06:44:15;1.70;;;0.80;;
71570;SDS011;59407;42.682;23.322;2023-04-15T06:46:42;3.65;;;1.35;;
71570;SDS011;59407;42.682;23.322;2023-04-15T06:49:11;1.75;;;1.00;;
71570;SDS011;59407;42.682;23.322;2023-04-15T06:51:38;3.10;;;1.33;;
71570;SDS011;59407;42.682;23.322;2023-04-15T06:54:03;2.43;;;0.90;;
71570;SDS011;59407;42.682;23.322;2023-04-15T06:56:30;2.15;;;1.00;;
71570;SDS011;59407;42.682;23.322;2023-04-15T06:58:56;1.60;;;0.70;;
71570;SDS011;59407;42.682;23.322;2023-04-15T07:01:23;3.20;;;2.00;;
71570;SDS011;59407;42.682;23.322;2023-04-15T07:03:50;1.80;;;1.25;;
71570;SDS011;59407;42.682;23.322;2023-04-15T07:06:16;3.13;;;1.70;;
71570;SDS011;59407;42.682;23.322;2023-04-15T07:08:42;3.60;;;1.52;;
71570;SDS011;59407;42.682;23.322;2023-04-15T07:11:08;2.40;;;1.27;;
71570;SDS011;59407;42.682;23.322;2023-04-15T07:13:34;2.10;;;1.23;;
71570;SDS011;59407;42.682;23.322;2023-04-15T07:16:00;3.35;;;1.65;;
71570;SDS011;59407;42.682;23.322;2023-04-15T07:18:26;2.10;;;0.60;;
71570;SDS011;59407;42.682;23.322;2023-04-15T07:20:53;2.72;;;1.10;;
71570;SDS011;59407;42.682;23.322;2023-04-15T07:23:20;3.60;;;1.33;;
71570;SDS011;59407;42.682;23.322;2023-04-15T07:25:45;2.10;;;1.77;;
71570;SDS011;59407;42.682;23.322;2023-04-15T07:28:14;2.45;;;1.20;;
71570;SDS011;59407;42.682;23.322;2023-04-15T07:30:40;1.88;;;0.88;;
71570;SDS011;59407;42.682;23.322;2023-04-15T07:33:07;1.77;;;1.03;;
71570;SDS011;59407;42.682;23.322;2023-04-15T07:35:33;9.82;;;1.85;;
71570;SDS011;59407;42.682;23.322;2023-04-15T07:37:58;3.63;;;1.40;;
71570;SDS011;59407;42.682;23.322;2023-04-15T07:40:27;2.08;;;1.30;;
71570;SDS011;59407;42.682;23.322;2023-04-15T07:42:53;2.92;;;1.63;;
71570;SDS011;59407;42.682;23.322;2023-04-15T07:45:22;1.97;;;1.23;;
71570;SDS011;59407;42.682;23.322;2023-04-15T07:47:47;3.75;;;1.20;;
71570;SDS011;59407;42.682;23.322;2023-04-15T07:50:15;1.70;;;0.70;;
71570;SDS011;59407;42.682;23.322;2023-04-15T07:52:43;2.20;;;1.23;;
71570;SDS011;59407;42.682;23.322;2023-04-15T07:55:09;3.78;;;1.25;;
71570;SDS011;59407;42.682;23.322;2023-04-15T07:57:35;1.50;;;0.70;;
71570;SDS011;59407;42.682;23.322;2023-04-15T08:00:03;2.20;;;1.17;;
71570;SDS011;59407;42.682;23.322;2023-04-15T08:02:32;1.88;;;0.93;;
71570;SDS011;59407;42.682;23.322;2023-04-15T08:04:57;3.40;;;1.57;;
71570;SDS011;59407;42.682;23.322;2023-04-15T08:07:24;1.13;;;0.45;;
71570;SDS011;59407;42.682;23.322;2023-04-15T08:09:51;1.97;;;0.97;;
71570;SDS011;59407;42.682;23.322;2023-04-15T08:12:18;2.47;;;1.15;;
71570;SDS011;59407;42.682;23.322;2023-04-15T08:14:43;1.03;;;0.33;;
71570;SDS011;59407;42.682;23.322;2023-04-15T08:17:11;2.58;;;1.38;;
71570;SDS011;59407;42.682;23.322;2023-04-15T08:19:36;1.50;;;0.60;;
71570;SDS011;59407;42.682;23.322;2023-04-15T08:22:01;3.60;;;0.93;;
71570;SDS011;59407;42.682;23.322;2023-04-15T08:24:27;1.50;;;0.70;;
71570;SDS011;59407;42.682;23.322;2023-04-15T08:26:54;1.98;;;0.88;;
71570;SDS011;59407;42.682;23.322;2023-04-15T08:29:21;1.20;;;0.47;;
71570;SDS011;59407;42.682;23.322;2023-04-15T08:31:47;1.20;;;0.50;;
71570;SDS011;59407;42.682;23.322;2023-04-15T08:34:13;1.27;;;0.50;;
71570;SDS011;59407;42.682;23.322;2023-04-15T08:36:41;1.23;;;0.43;;
71570;SDS011;59407;42.682;23.322;2023-04-15T08:39:07;1.50;;;0.70;;
71570;SDS011;59407;42.682;23.322;2023-04-15T08:41:55;0.93;;;0.40;;
71570;SDS011;59407;42.682;23.322;2023-04-15T08:44:28;1.52;;;0.40;;
71570;SDS011;59407;42.682;23.322;2023-04-15T08:47:02;1.35;;;0.43;;
71570;SDS011;59407;42.682;23.322;2023-04-15T08:49:29;1.05;;;0.20;;
71570;SDS011;59407;42.682;23.322;2023-04-15T08:51:57;2.15;;;0.35;;
71570;SDS011;59407;42.682;23.322;2023-04-15T08:54:26;1.20;;;0.40;;
71570;SDS011;59407;42.682;23.322;2023-04-15T08:56:52;1.15;;;0.30;;
71570;SDS011;59407;42.682;23.322;2023-04-15T08:59:18;1.00;;;0.30;;
71570;SDS011;59407;42.682;23.322;2023-04-15T09:01:48;1.50;;;0.40;;
71570;SDS011;59407;42.682;23.322;2023-04-15T09:04:15;1.15;;;0.50;;
71570;SDS011;59407;42.682;23.322;2023-04-15T09:06:42;1.03;;;0.30;;
71570;SDS011;59407;42.682;23.322;2023-04-15T09:09:13;1.30;;;0.50;;
71570;SDS011;59407;42.682;23.322;2023-04-15T09:11:39;1.73;;;0.73;;
71570;SDS011;59407;42.682;23.322;2023-04-15T09:14:04;1.30;;;0.47;;
71570;SDS011;59407;42.682;23.322;2023-04-15T09:16:30;1.10;;;0.45;;
71570;SDS011;59407;42.682;23.322;2023-04-15T09:18:59;0.80;;;0.22;;
71570;SDS011;59407;42.682;23.322;2023-04-15T09:21:26;1.50;;;0.80;;
71570;SDS011;59407;42.682;23.322;2023-04-15T09:23:57;1.55;;;0.55;;
71570;SDS011;59407;42.682;23.322;2023-04-15T09:26:34;1.45;;;0.60;;
71570;SDS011;59407;42.682;23.322;2023-04-15T09:29:05;1.33;;;0.60;;
71570;SDS011;59407;42.682;23.322;2023-04-15T09:31:37;2.20;;;0.70;;
71570;SDS011;59407;42.682;23.322;2023-04-15T09:34:03;1.70;;;0.60;;
71570;SDS011;59407;42.682;23.322;2023-04-15T09:36:29;1.90;;;0.88;;
71570;SDS011;59407;42.682;23.322;2023-04-15T09:39:03;1.33;;;0.68;;
71570;SDS011;59407;42.682;23.322;2023-04-15T09:41:29;1.27;;;0.52;;
71570;SDS011;59407;42.682;23.322;2023-04-15T09:43:55;2.10;;;0.77;;
71570;SDS011;59407;42.682;23.322;2023-04-15T09:46:39;1.87;;;0.60;;
71570;SDS011;59407;42.682;23.322;2023-04-15T09:49:08;1.73;;;0.60;;
71570;SDS011;59407;42.682;23.322;2023-04-15T09:51:34;1.10;;;0.40;;
71570;SDS011;59407;42.682;23.322;2023-04-15T09:54:00;1.13;;;0.30;;
71570;SDS011;59407;42.682;23.322;2023-04-15T09:56:33;2.83;;;0.68;;
71570;SDS011;59407;42.682;23.322;2023-04-15T09:59:01;1.67;;;0.68;;
71570;SDS011;59407;42.682;23.322;2023-04-15T10:01:27;1.63;;;0.47;;
71570;SDS011;59407;42.682;23.322;2023-04-15T10:03:53;1.17;;;0.43;;
71570;SDS011;59407;42.682;23.322;2023-04-15T10:06:20;1.27;;;0.30;;
71570;SDS011;59407;42.682;23.322;2023-04-15T10:08:46;1.77;;;0.47;;
71570;SDS011;59407;42.682;23.322;2023-04-15T10:11:16;1.17;;;0.40;;
71570;SDS011;59407;42.682;23.322;2023-04-15T10:13:44;1.50;;;0.27;;
71570;SDS011;59407;42.682;23.322;2023-04-15T10:16:13;0.98;;;0.28;;
71570;SDS011;59407;42.682;23.322;2023-04-15T10:18:44;1.27;;;0.47;;
71570;SDS011;59407;42.682;23.322;2023-04-15T10:21:11;1.27;;;0.35;;
71570;SDS011;59407;42.682;23.322;2023-04-15T10:23:39;1.95;;;0.47;;
71570;SDS011;59407;42.682;23.322;2023-04-15T10:26:05;0.87;;;0.20;;
71570;SDS011;59407;42.682;23.322;2023-04-15T10:28:31;0.60;;;0.10;;
71570;SDS011;59407;42.682;23.322;2023-04-15T10:30:58;1.08;;;0.20;;
71570;SDS011;59407;42.682;23.322;2023-04-15T10:33:24;1.00;;;0.30;;
71570;SDS011;59407;42.682;23.322;2023-04-15T10:35:52;0.60;;;0.10;;
71570;SDS011;59407;42.682;23.322;2023-04-15T10:41:19;0.70;;;0.20;;
71570;SDS011;59407;42.682;23.322;2023-04-15T10:44:19;1.20;;;0.32;;
71570;SDS011;59407;42.682;23.322;2023-04-15T10:46:41;1.05;;;0.20;;
71570;SDS011;59407;42.682;23.322;2023-04-15T10:49:14;0.82;;;0.15;;
71570;SDS011;59407;42.682;23.322;2023-04-15T10:51:45;1.00;;;0.27;;
71570;SDS011;59407;42.682;23.322;2023-04-15T10:54:30;0.82;;;0.10;;
71570;SDS011;59407;42.682;23.322;2023-04-15T10:59:28;1.42;;;0.45;;
71570;SDS011;59407;42.682;23.322;2023-04-15T11:01:56;0.80;;;0.20;;
71570;SDS011;59407;42.682;23.322;2023-04-15T11:07:36;0.80;;;0.15;;
71570;SDS011;59407;42.682;23.322;2023-04-15T11:10:08;1.17;;;0.20;;
71570;SDS011;59407;42.682;23.322;2023-04-15T11:13:00;1.15;;;0.25;;
71570;SDS011;59407;42.682;23.322;2023-04-15T11:15:45;1.08;;;0.57;;
71570;SDS011;59407;42.682;23.322;2023-04-15T11:20:52;0.70;;;0.10;;
71570;SDS011;59407;42.682;23.322;2023-04-15T11:25:58;3.13;;;0.20;;
71570;SDS011;59407;42.682;23.322;2023-04-15T11:28:25;1.08;;;0.20;;
71570;SDS011;59407;42.682;23.322;2023-04-15T11:30:52;1.10;;;0.20;;
71570;SDS011;59407;42.682;23.322;2023-04-15T11:33:21;0.80;;;0.15;;
71570;SDS011;59407;42.682;23.322;2023-04-15T11:35:49;0.60;;;0.10;;
71570;SDS011;59407;42.682;23.322;2023-04-15T11:38:18;1.25;;;0.20;;
71570;SDS011;59407;42.682;23.322;2023-04-15T11:40:45;0.60;;;0.10;;
71570;SDS011;59407;42.682;23.322;2023-04-15T11:43:12;0.97;;;0.23;;
71570;SDS011;59407;42.682;23.322;2023-04-15T11:45:59;0.88;;;0.13;;
71570;SDS011;59407;42.682;23.322;2023-04-15T11:48:27;2.67;;;0.22;;
71570;SDS011;59407;42.682;23.322;2023-04-15T11:50:58;1.00;;;0.20;;
71570;SDS011;59407;42.682;23.322;2023-04-15T11:53:50;1.27;;;0.30;;
71570;SDS011;59407;42.682;23.322;2023-04-15T11:56:23;0.90;;;0.10;;
71570;SDS011;59407;42.682;23.322;2023-04-15T11:58:51;0.60;;;0.10;;
71570;SDS011;59407;42.682;23.322;2023-04-15T12:01:18;1.02;;;0.22;;
71570;SDS011;59407;42.682;23.322;2023-04-15T12:03:44;0.77;;;0.20;;
71570;SDS011;59407;42.682;23.322;2023-04-15T12:06:23;0.98;;;0.20;;
71570;SDS011;59407;42.682;23.322;2023-04-15T12:14:06;0.90;;;0.23;;
71570;SDS011;59407;42.682;23.322;2023-04-15T12:16:39;0.80;;;0.10;;
71570;SDS011;59407;42.682;23.322;2023-04-15T12:19:10;0.82;;;0.20;;
71570;SDS011;59407;42.682;23.322;2023-04-15T12:21:38;0.73;;;0.10;;
71570;SDS011;59407;42.682;23.322;2023-04-15T12:24:07;0.93;;;0.20;;
71570;SDS011;59407;42.682;23.322;2023-04-15T12:26:50;1.10;;;0.20;;
71570;SDS011;59407;42.682;23.322;2023-04-15T12:29:35;1.17;;;0.35;;
71570;SDS011;59407;42.682;23.322;2023-04-15T12:32:06;0.70;;;0.17;;
71570;SDS011;59407;42.682;23.322;2023-04-15T12:34:39;0.90;;;0.20;;
71570;SDS011;59407;42.682;23.322;2023-04-15T12:37:09;1.10;;;0.30;;
71570;SDS011;59407;42.682;23.322;2023-04-15T12:39:40;0.83;;;0.10;;
71570;SDS011;59407;42.682;23.322;2023-04-15T12:42:07;0.90;;;0.10;;
71570;SDS011;59407;42.682;23.322;2023-04-15T12:44:35;0.75;;;0.10;;
71570;SDS011;59407;42.682;23.322;2023-04-15T12:47:02;1.00;;;0.30;;
71570;SDS011;59407;42.682;23.322;2023-04-15T12:49:34;0.60;;;0.10;;
71570;SDS011;59407;42.682;23.322;2023-04-15T12:52:00;1.33;;;0.53;;
71570;SDS011;59407;42.682;23.322;2023-04-15T12:54:28;1.00;;;0.20;;
71570;SDS011;59407;42.682;23.322;2023-04-15T12:56:58;0.65;;;0.10;;
71570;SDS011;59407;42.682;23.322;2023-04-15T12:59:23;0.70;;;0.20;;
71570;SDS011;59407;42.682;23.322;2023-04-15T13:01:49;1.73;;;0.60;;
71570;SDS011;59407;42.682;23.322;2023-04-15T13:04:18;1.17;;;0.20;;
71570;SDS011;59407;42.682;23.322;2023-04-15T13:06:44;0.70;;;0.10;;
71570;SDS011;59407;42.682;23.322;2023-04-15T13:09:11;0.77;;;0.10;;
71570;SDS011;59407;42.682;23.322;2023-04-15T13:11:37;0.75;;;0.20;;
71570;SDS011;59407;42.682;23.322;2023-04-15T13:14:04;1.00;;;0.30;;
71570;SDS011;59407;42.682;23.322;2023-04-15T13:16:31;0.70;;;0.10;;
71570;SDS011;59407;42.682;23.322;2023-04-15T13:18:59;1.20;;;0.40;;
71570;SDS011;59407;42.682;23.322;2023-04-15T13:21:29;1.13;;;0.20;;
71570;SDS011;59407;42.682;23.322;2023-04-15T13:23:59;0.60;;;0.10;;
71570;SDS011;59407;42.682;23.322;2023-04-15T13:26:24;0.60;;;0.10;;
71570;SDS011;59407;42.682;23.322;2023-04-15T13:28:49;0.70;;;0.10;;
71570;SDS011;59407;42.682;23.322;2023-04-15T13:31:15;0.60;;;0.10;;
71570;SDS011;59407;42.682;23.322;2023-04-15T13:33:41;0.93;;;0.30;;
71570;SDS011;59407;42.682;23.322;2023-04-15T13:36:07;0.70;;;0.10;;
71570;SDS011;59407;42.682;23.322;2023-04-15T13:38:33;0.70;;;0.10;;
71570;SDS011;59407;42.682;23.322;2023-04-15T13:40:59;0.60;;;0.10;;
71570;SDS011;59407;42.682;23.322;2023-04-15T13:43:25;0.80;;;0.20;;
71570;SDS011;59407;42.682;23.322;2023-04-15T13:45:51;1.27;;;0.30;;
71570;SDS011;59407;42.682;23.322;2023-04-15T13:48:17;0.60;;;0.10;;
71570;SDS011;59407;42.682;23.322;2023-04-15T13:50:43;0.60;;;0.17;;
71570;SDS011;59407;42.682;23.322;2023-04-15T13:53:10;0.80;;;0.10;;
71570;SDS011;59407;42.682;23.322;2023-04-15T13:55:36;0.60;;;0.10;;
71570;SDS011;59407;42.682;23.322;2023-04-15T13:58:07;0.50;;;0.10;;
71570;SDS011;59407;42.682;23.322;2023-04-15T14:00:33;0.50;;;0.10;;
71570;SDS011;59407;42.682;23.322;2023-04-15T14:03:01;0.55;;;0.10;;
71570;SDS011;59407;42.682;23.322;2023-04-15T14:05:27;0.57;;;0.10;;
71570;SDS011;59407;42.682;23.322;2023-04-15T14:07:53;1.42;;;0.10;;
71570;SDS011;59407;42.682;23.322;2023-04-15T14:10:20;1.00;;;0.10;;
71570;SDS011;59407;42.682;23.322;2023-04-15T14:12:46;0.70;;;0.10;;
71570;SDS011;59407;42.682;23.322;2023-04-15T14:15:11;1.00;;;0.20;;
71570;SDS011;59407;42.682;23.322;2023-04-15T14:17:39;1.20;;;0.32;;
71570;SDS011;59407;42.682;23.322;2023-04-15T14:20:06;0.77;;;0.10;;
71570;SDS011;59407;42.682;23.322;2023-04-15T14:22:32;0.70;;;0.10;;
71570;SDS011;59407;42.682;23.322;2023-04-15T14:24:58;1.10;;;0.73;;
71570;SDS011;59407;42.682;23.322;2023-04-15T14:27:25;0.65;;;0.10;;
71570;SDS011;59407;42.682;23.322;2023-04-15T14:29:51;1.05;;;0.30;;
71570;SDS011;59407;42.682;23.322;2023-04-15T14:32:18;2.40;;;0.23;;
71570;SDS011;59407;42.682;23.322;2023-04-15T14:34:45;1.08;;;0.10;;
71570;SDS011;59407;42.682;23.322;2023-04-15T14:37:15;0.60;;;0.10;;
71570;SDS011;59407;42.682;23.322;2023-04-15T14:39:44;1.50;;;0.22;;
71570;SDS011;59407;42.682;23.322;2023-04-15T14:42:11;0.30;;;0.10;;
71570;SDS011;59407;42.682;23.322;2023-04-15T14:44:36;0.43;;;0.10;;
71570;SDS011;59407;42.682;23.322;2023-04-15T14:47:02;0.40;;;0.10;;
71570;SDS011;59407;42.682;23.322;2023-04-15T14:49:30;0.50;;;0.10;;
71570;SDS011;59407;42.682;23.322;2023-04-15T14:51:56;0.55;;;0.10;;
71570;SDS011;59407;42.682;23.322;2023-04-15T14:54:23;1.25;;;0.68;;